sensor_id;sensor_type;location;lat;lon;timestamp;P1;durP1;ratioP1;P2;durP2;ratioP2
66607;SDS011;53462;39.616;8.824;2023-09-07T00:01:30;7.38;;;3.03;;
66607;SDS011;53462;39.616;8.824;2023-09-07T00:03:56;8.93;;;3.00;;
66607;SDS011;53462;39.616;8.824;2023-09-07T00:06:22;7.07;;;2.83;;
66607;SDS011;53462;39.616;8.824;2023-09-07T00:08:48;10.52;;;3.10;;
66607;SDS011;53462;39.616;8.824;2023-09-07T00:11:14;6.88;;;2.75;;
66607;SDS011;53462;39.616;8.824;2023-09-07T00:13:40;7.75;;;2.70;;
66607;SDS011;53462;39.616;8.824;2023-09-07T00:16:06;5.45;;;2.63;;
66607;SDS011;53462;39.616;8.824;2023-09-07T00:18:33;8.00;;;2.80;;
66607;SDS011;53462;39.616;8.824;2023-09-07T00:21:00;6.93;;;2.80;;
66607;SDS011;53462;39.616;8.824;2023-09-07T00:23:26;5.88;;;2.72;;
66607;SDS011;53462;39.616;8.824;2023-09-07T00:25:52;5.45;;;2.83;;
66607;SDS011;53462;39.616;8.824;2023-09-07T00:28:18;7.68;;;2.97;;
66607;SDS011;53462;39.616;8.824;2023-09-07T00:30:44;6.38;;;3.10;;
66607;SDS011;53462;39.616;8.824;2023-09-07T00:33:10;6.18;;;2.60;;
66607;SDS011;53462;39.616;8.824;2023-09-07T00:35:36;6.32;;;2.90;;
66607;SDS011;53462;39.616;8.824;2023-09-07T00:38:02;6.80;;;3.55;;
66607;SDS011;53462;39.616;8.824;2023-09-07T00:40:28;3.80;;;2.80;;
66607;SDS011;53462;39.616;8.824;2023-09-07T00:42:55;7.55;;;2.80;;
66607;SDS011;53462;39.616;8.824;2023-09-07T00:45:21;8.10;;;3.55;;
66607;SDS011;53462;39.616;8.824;2023-09-07T00:47:47;10.38;;;2.83;;
66607;SDS011;53462;39.616;8.824;2023-09-07T00:50:13;6.13;;;3.38;;
66607;SDS011;53462;39.616;8.824;2023-09-07T00:52:40;6.13;;;2.50;;
66607;SDS011;53462;39.616;8.824;2023-09-07T00:55:09;5.00;;;3.00;;
66607;SDS011;53462;39.616;8.824;2023-09-07T00:57:36;9.63;;;2.80;;
66607;SDS011;53462;39.616;8.824;2023-09-07T01:00:05;7.97;;;2.83;;
66607;SDS011;53462;39.616;8.824;2023-09-07T01:02:33;8.60;;;3.00;;
66607;SDS011;53462;39.616;8.824;2023-09-07T01:04:59;7.38;;;3.08;;
66607;SDS011;53462;39.616;8.824;2023-09-07T01:07:32;5.93;;;2.70;;
66607;SDS011;53462;39.616;8.824;2023-09-07T01:10:03;7.20;;;2.90;;
66607;SDS011;53462;39.616;8.824;2023-09-07T01:12:29;7.90;;;3.08;;
66607;SDS011;53462;39.616;8.824;2023-09-07T01:14:55;6.43;;;3.00;;
66607;SDS011;53462;39.616;8.824;2023-09-07T01:17:22;4.22;;;2.70;;
66607;SDS011;53462;39.616;8.824;2023-09-07T01:19:50;6.20;;;3.17;;
66607;SDS011;53462;39.616;8.824;2023-09-07T01:22:20;5.88;;;2.90;;
66607;SDS011;53462;39.616;8.824;2023-09-07T01:24:50;7.97;;;3.47;;
66607;SDS011;53462;39.616;8.824;2023-09-07T01:27:18;5.95;;;3.10;;
66607;SDS011;53462;39.616;8.824;2023-09-07T01:29:44;7.38;;;2.92;;
66607;SDS011;53462;39.616;8.824;2023-09-07T01:32:10;6.05;;;2.92;;
66607;SDS011;53462;39.616;8.824;2023-09-07T01:34:36;7.57;;;3.10;;
66607;SDS011;53462;39.616;8.824;2023-09-07T01:37:02;5.88;;;2.88;;
66607;SDS011;53462;39.616;8.824;2023-09-07T01:39:28;7.10;;;3.40;;
66607;SDS011;53462;39.616;8.824;2023-09-07T01:41:54;5.90;;;3.10;;
66607;SDS011;53462;39.616;8.824;2023-09-07T01:44:20;9.40;;;3.13;;
66607;SDS011;53462;39.616;8.824;2023-09-07T01:46:46;5.60;;;3.10;;
66607;SDS011;53462;39.616;8.824;2023-09-07T01:49:12;5.30;;;3.13;;
66607;SDS011;53462;39.616;8.824;2023-09-07T01:51:38;6.95;;;3.20;;
66607;SDS011;53462;39.616;8.824;2023-09-07T01:54:04;9.38;;;3.35;;
66607;SDS011;53462;39.616;8.824;2023-09-07T01:56:31;6.05;;;3.10;;
66607;SDS011;53462;39.616;8.824;2023-09-07T01:58:57;5.30;;;3.50;;
66607;SDS011;53462;39.616;8.824;2023-09-07T02:01:23;5.15;;;3.08;;
66607;SDS011;53462;39.616;8.824;2023-09-07T02:03:50;6.22;;;2.90;;
66607;SDS011;53462;39.616;8.824;2023-09-07T02:06:17;7.93;;;3.40;;
66607;SDS011;53462;39.616;8.824;2023-09-07T02:08:44;5.22;;;3.00;;
66607;SDS011;53462;39.616;8.824;2023-09-07T02:11:10;8.63;;;3.10;;
66607;SDS011;53462;39.616;8.824;2023-09-07T02:13:37;6.15;;;3.10;;
66607;SDS011;53462;39.616;8.824;2023-09-07T02:16:04;6.22;;;3.15;;
66607;SDS011;53462;39.616;8.824;2023-09-07T02:18:33;7.70;;;3.10;;
66607;SDS011;53462;39.616;8.824;2023-09-07T02:21:02;5.32;;;3.00;;
66607;SDS011;53462;39.616;8.824;2023-09-07T02:23:32;11.98;;;3.63;;
66607;SDS011;53462;39.616;8.824;2023-09-07T02:25:58;8.13;;;3.75;;
66607;SDS011;53462;39.616;8.824;2023-09-07T02:28:25;7.90;;;3.22;;
66607;SDS011;53462;39.616;8.824;2023-09-07T02:30:52;7.55;;;3.45;;
66607;SDS011;53462;39.616;8.824;2023-09-07T02:33:18;8.77;;;3.20;;
66607;SDS011;53462;39.616;8.824;2023-09-07T02:35:44;6.32;;;3.28;;
66607;SDS011;53462;39.616;8.824;2023-09-07T02:38:10;8.48;;;3.50;;
66607;SDS011;53462;39.616;8.824;2023-09-07T02:40:40;6.35;;;3.30;;
66607;SDS011;53462;39.616;8.824;2023-09-07T02:43:09;8.85;;;2.97;;
66607;SDS011;53462;39.616;8.824;2023-09-07T02:45:35;6.68;;;3.38;;
66607;SDS011;53462;39.616;8.824;2023-09-07T02:48:03;6.10;;;3.10;;
66607;SDS011;53462;39.616;8.824;2023-09-07T02:50:31;6.35;;;2.90;;
66607;SDS011;53462;39.616;8.824;2023-09-07T02:52:58;6.25;;;3.28;;
66607;SDS011;53462;39.616;8.824;2023-09-07T02:55:26;5.00;;;3.28;;
66607;SDS011;53462;39.616;8.824;2023-09-07T02:57:53;6.03;;;3.42;;
66607;SDS011;53462;39.616;8.824;2023-09-07T03:00:22;8.32;;;3.53;;
66607;SDS011;53462;39.616;8.824;2023-09-07T03:02:49;10.15;;;3.15;;
66607;SDS011;53462;39.616;8.824;2023-09-07T03:05:16;5.75;;;2.90;;
66607;SDS011;53462;39.616;8.824;2023-09-07T03:07:44;6.30;;;3.63;;
66607;SDS011;53462;39.616;8.824;2023-09-07T03:10:11;8.40;;;3.35;;
66607;SDS011;53462;39.616;8.824;2023-09-07T03:12:38;7.22;;;3.38;;
66607;SDS011;53462;39.616;8.824;2023-09-07T03:15:04;6.63;;;2.80;;
66607;SDS011;53462;39.616;8.824;2023-09-07T03:17:31;7.95;;;3.33;;
66607;SDS011;53462;39.616;8.824;2023-09-07T03:19:57;7.32;;;3.22;;
66607;SDS011;53462;39.616;8.824;2023-09-07T03:22:23;7.18;;;3.20;;
66607;SDS011;53462;39.616;8.824;2023-09-07T03:24:52;5.85;;;2.80;;
66607;SDS011;53462;39.616;8.824;2023-09-07T03:27:18;5.40;;;3.00;;
66607;SDS011;53462;39.616;8.824;2023-09-07T03:29:46;7.47;;;3.50;;
66607;SDS011;53462;39.616;8.824;2023-09-07T03:32:18;9.07;;;3.40;;
66607;SDS011;53462;39.616;8.824;2023-09-07T03:34:44;5.97;;;2.92;;
66607;SDS011;53462;39.616;8.824;2023-09-07T03:37:10;7.95;;;3.20;;
66607;SDS011;53462;39.616;8.824;2023-09-07T03:39:37;6.85;;;3.30;;
66607;SDS011;53462;39.616;8.824;2023-09-07T03:42:03;6.70;;;3.20;;
66607;SDS011;53462;39.616;8.824;2023-09-07T03:44:30;4.45;;;3.15;;
66607;SDS011;53462;39.616;8.824;2023-09-07T03:46:55;6.15;;;2.80;;
66607;SDS011;53462;39.616;8.824;2023-09-07T03:49:21;5.45;;;3.10;;
66607;SDS011;53462;39.616;8.824;2023-09-07T03:51:47;6.80;;;3.25;;
66607;SDS011;53462;39.616;8.824;2023-09-07T03:54:13;6.07;;;3.13;;
66607;SDS011;53462;39.616;8.824;2023-09-07T03:56:39;6.95;;;3.47;;
66607;SDS011;53462;39.616;8.824;2023-09-07T03:59:07;7.28;;;3.42;;
66607;SDS011;53462;39.616;8.824;2023-09-07T04:01:34;8.68;;;3.47;;
66607;SDS011;53462;39.616;8.824;2023-09-07T04:03:59;5.95;;;3.30;;
66607;SDS011;53462;39.616;8.824;2023-09-07T04:06:25;7.30;;;3.70;;
66607;SDS011;53462;39.616;8.824;2023-09-07T04:08:51;8.30;;;3.03;;
66607;SDS011;53462;39.616;8.824;2023-09-07T04:11:17;6.90;;;3.28;;
66607;SDS011;53462;39.616;8.824;2023-09-07T04:13:43;6.32;;;3.35;;
66607;SDS011;53462;39.616;8.824;2023-09-07T04:16:09;7.40;;;3.20;;
66607;SDS011;53462;39.616;8.824;2023-09-07T04:18:35;7.63;;;3.47;;
66607;SDS011;53462;39.616;8.824;2023-09-07T04:21:07;9.50;;;3.92;;
66607;SDS011;53462;39.616;8.824;2023-09-07T04:23:34;5.55;;;3.42;;
66607;SDS011;53462;39.616;8.824;2023-09-07T04:26:05;6.97;;;3.70;;
66607;SDS011;53462;39.616;8.824;2023-09-07T04:28:32;6.18;;;3.28;;
66607;SDS011;53462;39.616;8.824;2023-09-07T04:30:58;6.18;;;3.40;;
66607;SDS011;53462;39.616;8.824;2023-09-07T04:33:24;9.25;;;3.80;;
66607;SDS011;53462;39.616;8.824;2023-09-07T04:35:50;5.93;;;3.63;;
66607;SDS011;53462;39.616;8.824;2023-09-07T04:38:16;6.75;;;3.40;;
66607;SDS011;53462;39.616;8.824;2023-09-07T04:40:42;10.88;;;3.42;;
66607;SDS011;53462;39.616;8.824;2023-09-07T04:43:08;7.13;;;3.53;;
66607;SDS011;53462;39.616;8.824;2023-09-07T04:45:34;7.10;;;3.30;;
66607;SDS011;53462;39.616;8.824;2023-09-07T04:48:00;13.57;;;3.85;;
66607;SDS011;53462;39.616;8.824;2023-09-07T04:50:27;11.88;;;3.90;;
66607;SDS011;53462;39.616;8.824;2023-09-07T04:52:53;7.93;;;3.47;;
66607;SDS011;53462;39.616;8.824;2023-09-07T04:55:19;20.42;;;3.58;;
66607;SDS011;53462;39.616;8.824;2023-09-07T04:57:45;16.50;;;3.75;;
66607;SDS011;53462;39.616;8.824;2023-09-07T05:00:11;13.52;;;3.95;;
66607;SDS011;53462;39.616;8.824;2023-09-07T05:02:38;8.88;;;4.00;;
66607;SDS011;53462;39.616;8.824;2023-09-07T05:05:07;8.70;;;3.58;;
66607;SDS011;53462;39.616;8.824;2023-09-07T05:07:33;9.15;;;3.47;;
66607;SDS011;53462;39.616;8.824;2023-09-07T05:09:59;8.30;;;3.40;;
66607;SDS011;53462;39.616;8.824;2023-09-07T05:12:25;13.95;;;4.10;;
66607;SDS011;53462;39.616;8.824;2023-09-07T05:14:51;10.48;;;3.90;;
66607;SDS011;53462;39.616;8.824;2023-09-07T05:17:17;9.48;;;3.90;;
66607;SDS011;53462;39.616;8.824;2023-09-07T05:19:43;12.13;;;3.70;;
66607;SDS011;53462;39.616;8.824;2023-09-07T05:22:10;12.02;;;3.88;;
66607;SDS011;53462;39.616;8.824;2023-09-07T05:24:39;5.60;;;3.58;;
66607;SDS011;53462;39.616;8.824;2023-09-07T05:27:06;14.32;;;3.80;;
66607;SDS011;53462;39.616;8.824;2023-09-07T05:29:32;14.20;;;3.92;;
66607;SDS011;53462;39.616;8.824;2023-09-07T05:31:58;10.15;;;3.75;;
66607;SDS011;53462;39.616;8.824;2023-09-07T05:34:24;8.80;;;3.58;;
66607;SDS011;53462;39.616;8.824;2023-09-07T05:36:50;7.40;;;3.75;;
66607;SDS011;53462;39.616;8.824;2023-09-07T05:39:16;7.90;;;3.90;;
66607;SDS011;53462;39.616;8.824;2023-09-07T05:41:42;8.38;;;3.67;;
66607;SDS011;53462;39.616;8.824;2023-09-07T05:44:08;9.70;;;3.72;;
66607;SDS011;53462;39.616;8.824;2023-09-07T05:46:34;8.43;;;3.67;;
66607;SDS011;53462;39.616;8.824;2023-09-07T05:48:59;7.78;;;3.90;;
66607;SDS011;53462;39.616;8.824;2023-09-07T05:51:25;6.53;;;3.35;;
66607;SDS011;53462;39.616;8.824;2023-09-07T05:53:51;8.00;;;3.58;;
66607;SDS011;53462;39.616;8.824;2023-09-07T05:56:20;8.00;;;3.53;;
66607;SDS011;53462;39.616;8.824;2023-09-07T05:58:46;9.48;;;3.75;;
66607;SDS011;53462;39.616;8.824;2023-09-07T06:01:12;7.13;;;3.53;;
66607;SDS011;53462;39.616;8.824;2023-09-07T06:03:38;8.30;;;3.75;;
66607;SDS011;53462;39.616;8.824;2023-09-07T06:06:04;10.43;;;3.50;;
66607;SDS011;53462;39.616;8.824;2023-09-07T06:08:31;6.13;;;3.30;;
66607;SDS011;53462;39.616;8.824;2023-09-07T06:10:56;7.50;;;4.10;;
66607;SDS011;53462;39.616;8.824;2023-09-07T06:13:22;6.05;;;3.60;;
66607;SDS011;53462;39.616;8.824;2023-09-07T06:15:48;8.50;;;3.92;;
66607;SDS011;53462;39.616;8.824;2023-09-07T06:18:15;10.65;;;4.20;;
66607;SDS011;53462;39.616;8.824;2023-09-07T06:20:41;12.10;;;4.30;;
66607;SDS011;53462;39.616;8.824;2023-09-07T06:23:07;8.02;;;3.92;;
66607;SDS011;53462;39.616;8.824;2023-09-07T06:25:33;10.15;;;3.92;;
66607;SDS011;53462;39.616;8.824;2023-09-07T06:28:00;8.90;;;4.10;;
66607;SDS011;53462;39.616;8.824;2023-09-07T06:30:26;11.43;;;4.13;;
66607;SDS011;53462;39.616;8.824;2023-09-07T06:32:52;11.20;;;4.40;;
66607;SDS011;53462;39.616;8.824;2023-09-07T06:35:18;16.65;;;5.50;;
66607;SDS011;53462;39.616;8.824;2023-09-07T06:37:46;9.30;;;4.20;;
66607;SDS011;53462;39.616;8.824;2023-09-07T06:40:15;10.73;;;4.72;;
66607;SDS011;53462;39.616;8.824;2023-09-07T06:42:44;9.55;;;3.90;;
66607;SDS011;53462;39.616;8.824;2023-09-07T06:45:13;11.80;;;4.05;;
66607;SDS011;53462;39.616;8.824;2023-09-07T06:47:39;10.80;;;4.05;;
66607;SDS011;53462;39.616;8.824;2023-09-07T06:50:07;11.32;;;3.67;;
66607;SDS011;53462;39.616;8.824;2023-09-07T06:52:33;6.70;;;3.22;;
66607;SDS011;53462;39.616;8.824;2023-09-07T06:54:59;8.95;;;3.25;;
66607;SDS011;53462;39.616;8.824;2023-09-07T06:57:25;6.53;;;3.38;;
66607;SDS011;53462;39.616;8.824;2023-09-07T06:59:52;6.55;;;3.10;;
66607;SDS011;53462;39.616;8.824;2023-09-07T07:02:18;5.53;;;3.20;;
66607;SDS011;53462;39.616;8.824;2023-09-07T07:04:44;10.35;;;3.60;;
66607;SDS011;53462;39.616;8.824;2023-09-07T07:07:13;6.57;;;3.42;;
66607;SDS011;53462;39.616;8.824;2023-09-07T07:09:39;6.30;;;3.45;;
66607;SDS011;53462;39.616;8.824;2023-09-07T07:12:05;6.53;;;3.20;;
66607;SDS011;53462;39.616;8.824;2023-09-07T07:14:31;5.45;;;2.92;;
66607;SDS011;53462;39.616;8.824;2023-09-07T07:16:58;7.30;;;3.20;;
66607;SDS011;53462;39.616;8.824;2023-09-07T07:19:24;7.43;;;4.15;;
66607;SDS011;53462;39.616;8.824;2023-09-07T07:21:50;9.60;;;3.60;;
66607;SDS011;53462;39.616;8.824;2023-09-07T07:24:16;9.02;;;3.17;;
66607;SDS011;53462;39.616;8.824;2023-09-07T07:26:43;7.95;;;3.20;;
66607;SDS011;53462;39.616;8.824;2023-09-07T07:29:09;6.20;;;3.00;;
66607;SDS011;53462;39.616;8.824;2023-09-07T07:31:35;6.68;;;3.38;;
66607;SDS011;53462;39.616;8.824;2023-09-07T07:34:02;8.20;;;3.28;;
66607;SDS011;53462;39.616;8.824;2023-09-07T07:36:28;7.47;;;3.35;;
66607;SDS011;53462;39.616;8.824;2023-09-07T07:38:54;9.27;;;3.53;;
66607;SDS011;53462;39.616;8.824;2023-09-07T07:41:20;8.02;;;3.15;;
66607;SDS011;53462;39.616;8.824;2023-09-07T07:43:46;9.38;;;3.25;;
66607;SDS011;53462;39.616;8.824;2023-09-07T07:46:12;7.75;;;3.13;;
66607;SDS011;53462;39.616;8.824;2023-09-07T07:48:41;6.07;;;3.33;;
66607;SDS011;53462;39.616;8.824;2023-09-07T07:51:08;8.18;;;3.30;;
66607;SDS011;53462;39.616;8.824;2023-09-07T07:53:35;5.68;;;3.25;;
66607;SDS011;53462;39.616;8.824;2023-09-07T07:56:01;5.38;;;3.20;;
66607;SDS011;53462;39.616;8.824;2023-09-07T07:58:28;5.88;;;2.95;;
66607;SDS011;53462;39.616;8.824;2023-09-07T08:00:54;7.85;;;2.50;;
66607;SDS011;53462;39.616;8.824;2023-09-07T08:03:26;7.03;;;2.80;;
66607;SDS011;53462;39.616;8.824;2023-09-07T08:05:53;4.43;;;2.70;;
66607;SDS011;53462;39.616;8.824;2023-09-07T08:08:19;9.05;;;3.33;;
66607;SDS011;53462;39.616;8.824;2023-09-07T08:10:44;6.10;;;2.80;;
66607;SDS011;53462;39.616;8.824;2023-09-07T08:13:35;3.72;;;2.50;;
66607;SDS011;53462;39.616;8.824;2023-09-07T08:16:03;3.67;;;2.50;;
66607;SDS011;53462;39.616;8.824;2023-09-07T08:18:31;4.28;;;2.67;;
66607;SDS011;53462;39.616;8.824;2023-09-07T08:20:59;6.43;;;3.05;;
66607;SDS011;53462;39.616;8.824;2023-09-07T08:23:26;7.10;;;3.33;;
66607;SDS011;53462;39.616;8.824;2023-09-07T08:25:52;4.55;;;3.08;;
66607;SDS011;53462;39.616;8.824;2023-09-07T08:28:21;5.82;;;3.20;;
66607;SDS011;53462;39.616;8.824;2023-09-07T08:30:50;4.65;;;3.20;;
66607;SDS011;53462;39.616;8.824;2023-09-07T08:33:20;5.03;;;2.90;;
66607;SDS011;53462;39.616;8.824;2023-09-07T08:35:51;6.93;;;3.10;;
66607;SDS011;53462;39.616;8.824;2023-09-07T08:38:21;6.25;;;3.13;;
66607;SDS011;53462;39.616;8.824;2023-09-07T08:40:50;6.60;;;3.58;;
66607;SDS011;53462;39.616;8.824;2023-09-07T08:43:22;7.72;;;3.08;;
66607;SDS011;53462;39.616;8.824;2023-09-07T08:46:00;5.40;;;3.10;;
66607;SDS011;53462;39.616;8.824;2023-09-07T08:48:35;4.95;;;3.03;;
66607;SDS011;53462;39.616;8.824;2023-09-07T08:51:02;4.72;;;2.88;;
66607;SDS011;53462;39.616;8.824;2023-09-07T08:53:29;6.20;;;2.92;;
66607;SDS011;53462;39.616;8.824;2023-09-07T08:55:56;6.95;;;3.03;;
66607;SDS011;53462;39.616;8.824;2023-09-07T08:58:23;4.18;;;2.90;;
66607;SDS011;53462;39.616;8.824;2023-09-07T09:00:48;3.97;;;2.90;;
66607;SDS011;53462;39.616;8.824;2023-09-07T09:03:17;5.65;;;2.60;;
66607;SDS011;53462;39.616;8.824;2023-09-07T09:05:42;4.05;;;2.72;;
66607;SDS011;53462;39.616;8.824;2023-09-07T09:08:09;4.15;;;2.70;;
66607;SDS011;53462;39.616;8.824;2023-09-07T09:10:38;5.85;;;2.90;;
66607;SDS011;53462;39.616;8.824;2023-09-07T09:13:04;4.10;;;2.78;;
66607;SDS011;53462;39.616;8.824;2023-09-07T09:15:30;4.28;;;2.72;;
66607;SDS011;53462;39.616;8.824;2023-09-07T09:17:56;7.75;;;2.90;;
66607;SDS011;53462;39.616;8.824;2023-09-07T09:22:53;4.22;;;2.95;;
66607;SDS011;53462;39.616;8.824;2023-09-07T09:25:19;5.30;;;2.90;;
66607;SDS011;53462;39.616;8.824;2023-09-07T09:27:49;5.22;;;2.97;;
66607;SDS011;53462;39.616;8.824;2023-09-07T09:30:15;3.75;;;2.80;;
66607;SDS011;53462;39.616;8.824;2023-09-07T09:32:42;3.92;;;2.97;;
66607;SDS011;53462;39.616;8.824;2023-09-07T09:35:08;5.88;;;2.72;;
66607;SDS011;53462;39.616;8.824;2023-09-07T09:37:48;7.07;;;3.08;;
66607;SDS011;53462;39.616;8.824;2023-09-07T09:40:14;5.40;;;3.30;;
66607;SDS011;53462;39.616;8.824;2023-09-07T09:42:42;6.45;;;3.20;;
66607;SDS011;53462;39.616;8.824;2023-09-07T09:45:09;5.25;;;3.00;;
66607;SDS011;53462;39.616;8.824;2023-09-07T09:47:40;5.47;;;3.08;;
66607;SDS011;53462;39.616;8.824;2023-09-07T09:50:08;4.63;;;2.70;;
66607;SDS011;53462;39.616;8.824;2023-09-07T09:52:35;6.00;;;2.80;;
66607;SDS011;53462;39.616;8.824;2023-09-07T09:55:03;4.70;;;3.30;;
66607;SDS011;53462;39.616;8.824;2023-09-07T09:57:36;4.72;;;3.13;;
66607;SDS011;53462;39.616;8.824;2023-09-07T10:00:05;3.72;;;3.10;;
66607;SDS011;53462;39.616;8.824;2023-09-07T10:02:48;5.22;;;3.20;;
66607;SDS011;53462;39.616;8.824;2023-09-07T10:05:17;7.82;;;3.70;;
66607;SDS011;53462;39.616;8.824;2023-09-07T10:07:45;4.70;;;3.30;;
66607;SDS011;53462;39.616;8.824;2023-09-07T10:10:15;7.28;;;3.67;;
66607;SDS011;53462;39.616;8.824;2023-09-07T10:12:44;6.03;;;3.33;;
66607;SDS011;53462;39.616;8.824;2023-09-07T10:15:23;5.45;;;3.55;;
66607;SDS011;53462;39.616;8.824;2023-09-07T10:18:01;7.38;;;3.15;;
66607;SDS011;53462;39.616;8.824;2023-09-07T10:23:34;4.25;;;3.35;;
66607;SDS011;53462;39.616;8.824;2023-09-07T10:26:05;9.40;;;3.53;;
66607;SDS011;53462;39.616;8.824;2023-09-07T10:28:36;5.47;;;3.45;;
66607;SDS011;53462;39.616;8.824;2023-09-07T10:31:02;7.20;;;3.38;;
66607;SDS011;53462;39.616;8.824;2023-09-07T10:33:30;6.93;;;3.45;;
66607;SDS011;53462;39.616;8.824;2023-09-07T10:35:58;4.53;;;3.22;;
66607;SDS011;53462;39.616;8.824;2023-09-07T10:38:24;5.63;;;3.92;;
66607;SDS011;53462;39.616;8.824;2023-09-07T10:40:57;5.63;;;3.40;;
66607;SDS011;53462;39.616;8.824;2023-09-07T10:43:27;5.35;;;3.90;;
66607;SDS011;53462;39.616;8.824;2023-09-07T10:45:58;4.38;;;3.40;;
66607;SDS011;53462;39.616;8.824;2023-09-07T10:48:26;6.13;;;3.50;;
66607;SDS011;53462;39.616;8.824;2023-09-07T10:50:55;6.32;;;4.00;;
66607;SDS011;53462;39.616;8.824;2023-09-07T10:53:28;7.20;;;3.38;;
66607;SDS011;53462;39.616;8.824;2023-09-07T10:55:59;4.82;;;3.58;;
66607;SDS011;53462;39.616;8.824;2023-09-07T10:58:36;6.55;;;3.60;;
66607;SDS011;53462;39.616;8.824;2023-09-07T11:01:07;5.53;;;3.70;;
66607;SDS011;53462;39.616;8.824;2023-09-07T11:03:34;7.28;;;3.60;;
66607;SDS011;53462;39.616;8.824;2023-09-07T11:06:04;7.32;;;3.45;;
66607;SDS011;53462;39.616;8.824;2023-09-07T11:08:37;6.82;;;3.72;;
66607;SDS011;53462;39.616;8.824;2023-09-07T11:11:03;5.70;;;3.67;;
66607;SDS011;53462;39.616;8.824;2023-09-07T11:13:29;6.38;;;3.45;;
66607;SDS011;53462;39.616;8.824;2023-09-07T11:15:56;5.00;;;3.50;;
66607;SDS011;53462;39.616;8.824;2023-09-07T11:18:24;7.57;;;3.45;;
66607;SDS011;53462;39.616;8.824;2023-09-07T11:20:51;7.18;;;3.40;;
66607;SDS011;53462;39.616;8.824;2023-09-07T11:23:18;4.80;;;3.05;;
66607;SDS011;53462;39.616;8.824;2023-09-07T11:25:45;7.25;;;3.35;;
66607;SDS011;53462;39.616;8.824;2023-09-07T11:28:12;3.80;;;3.08;;
66607;SDS011;53462;39.616;8.824;2023-09-07T11:30:50;5.47;;;3.40;;
66607;SDS011;53462;39.616;8.824;2023-09-07T11:33:20;5.97;;;3.60;;
66607;SDS011;53462;39.616;8.824;2023-09-07T11:35:47;4.45;;;3.40;;
66607;SDS011;53462;39.616;8.824;2023-09-07T11:38:14;4.85;;;3.35;;
66607;SDS011;53462;39.616;8.824;2023-09-07T11:40:41;3.92;;;3.25;;
66607;SDS011;53462;39.616;8.824;2023-09-07T11:43:16;4.82;;;3.53;;
66607;SDS011;53462;39.616;8.824;2023-09-07T11:45:46;3.75;;;3.20;;
66607;SDS011;53462;39.616;8.824;2023-09-07T11:48:12;3.35;;;3.05;;
66607;SDS011;53462;39.616;8.824;2023-09-07T11:50:39;4.93;;;3.40;;
66607;SDS011;53462;39.616;8.824;2023-09-07T11:53:05;6.20;;;3.38;;
66607;SDS011;53462;39.616;8.824;2023-09-07T11:55:32;3.70;;;3.22;;
66607;SDS011;53462;39.616;8.824;2023-09-07T11:57:58;5.07;;;3.50;;
66607;SDS011;53462;39.616;8.824;2023-09-07T12:00:25;5.40;;;3.05;;
66607;SDS011;53462;39.616;8.824;2023-09-07T12:02:52;6.32;;;3.28;;
66607;SDS011;53462;39.616;8.824;2023-09-07T12:05:18;3.72;;;2.60;;
66607;SDS011;53462;39.616;8.824;2023-09-07T12:07:44;8.05;;;3.15;;
66607;SDS011;53462;39.616;8.824;2023-09-07T12:10:11;6.03;;;2.90;;
66607;SDS011;53462;39.616;8.824;2023-09-07T12:12:39;7.43;;;3.20;;
66607;SDS011;53462;39.616;8.824;2023-09-07T12:15:05;4.68;;;2.70;;
66607;SDS011;53462;39.616;8.824;2023-09-07T12:17:32;7.53;;;3.08;;
66607;SDS011;53462;39.616;8.824;2023-09-07T12:19:59;3.63;;;3.10;;
66607;SDS011;53462;39.616;8.824;2023-09-07T12:22:26;5.68;;;2.97;;
66607;SDS011;53462;39.616;8.824;2023-09-07T12:24:52;5.07;;;3.70;;
66607;SDS011;53462;39.616;8.824;2023-09-07T12:27:18;5.88;;;3.13;;
66607;SDS011;53462;39.616;8.824;2023-09-07T12:29:44;3.22;;;2.92;;
66607;SDS011;53462;39.616;8.824;2023-09-07T12:32:11;6.10;;;3.20;;
66607;SDS011;53462;39.616;8.824;2023-09-07T12:34:37;7.72;;;2.90;;
66607;SDS011;53462;39.616;8.824;2023-09-07T12:37:04;5.82;;;2.80;;
66607;SDS011;53462;39.616;8.824;2023-09-07T12:39:30;5.85;;;3.00;;
66607;SDS011;53462;39.616;8.824;2023-09-07T12:41:59;3.83;;;2.70;;
66607;SDS011;53462;39.616;8.824;2023-09-07T12:44:25;4.75;;;2.70;;
66607;SDS011;53462;39.616;8.824;2023-09-07T12:46:51;9.02;;;3.15;;
66607;SDS011;53462;39.616;8.824;2023-09-07T12:49:17;4.50;;;2.63;;
66607;SDS011;53462;39.616;8.824;2023-09-07T12:51:42;4.50;;;2.70;;
66607;SDS011;53462;39.616;8.824;2023-09-07T12:54:10;3.75;;;2.80;;
66607;SDS011;53462;39.616;8.824;2023-09-07T12:56:36;6.70;;;2.72;;
66607;SDS011;53462;39.616;8.824;2023-09-07T12:59:02;4.53;;;2.50;;
66607;SDS011;53462;39.616;8.824;2023-09-07T13:01:28;5.18;;;2.95;;
66607;SDS011;53462;39.616;8.824;2023-09-07T13:03:56;8.07;;;2.80;;
66607;SDS011;53462;39.616;8.824;2023-09-07T13:06:22;4.13;;;2.80;;
66607;SDS011;53462;39.616;8.824;2023-09-07T13:08:48;6.57;;;3.38;;
66607;SDS011;53462;39.616;8.824;2023-09-07T13:11:14;7.93;;;3.10;;
66607;SDS011;53462;39.616;8.824;2023-09-07T13:13:40;4.28;;;2.70;;
66607;SDS011;53462;39.616;8.824;2023-09-07T13:16:05;6.13;;;2.97;;
66607;SDS011;53462;39.616;8.824;2023-09-07T13:18:31;5.63;;;2.67;;
66607;SDS011;53462;39.616;8.824;2023-09-07T13:20:57;4.63;;;2.63;;
66607;SDS011;53462;39.616;8.824;2023-09-07T13:23:26;3.75;;;2.65;;
66607;SDS011;53462;39.616;8.824;2023-09-07T13:25:56;5.65;;;2.80;;
66607;SDS011;53462;39.616;8.824;2023-09-07T13:28:23;7.63;;;3.05;;
66607;SDS011;53462;39.616;8.824;2023-09-07T13:30:52;3.72;;;2.83;;
66607;SDS011;53462;39.616;8.824;2023-09-07T13:33:18;5.85;;;2.70;;
66607;SDS011;53462;39.616;8.824;2023-09-07T13:35:44;3.35;;;2.78;;
66607;SDS011;53462;39.616;8.824;2023-09-07T13:38:10;3.75;;;2.75;;
66607;SDS011;53462;39.616;8.824;2023-09-07T13:40:36;3.67;;;2.58;;
66607;SDS011;53462;39.616;8.824;2023-09-07T13:43:02;5.95;;;2.90;;
66607;SDS011;53462;39.616;8.824;2023-09-07T13:45:28;4.85;;;2.60;;
66607;SDS011;53462;39.616;8.824;2023-09-07T13:47:55;4.40;;;2.60;;
66607;SDS011;53462;39.616;8.824;2023-09-07T13:50:21;5.38;;;2.70;;
66607;SDS011;53462;39.616;8.824;2023-09-07T13:52:47;5.45;;;2.72;;
66607;SDS011;53462;39.616;8.824;2023-09-07T13:55:14;4.00;;;2.72;;
66607;SDS011;53462;39.616;8.824;2023-09-07T13:57:40;3.83;;;2.75;;
66607;SDS011;53462;39.616;8.824;2023-09-07T14:00:06;6.85;;;2.72;;
66607;SDS011;53462;39.616;8.824;2023-09-07T14:02:32;6.57;;;2.67;;
66607;SDS011;53462;39.616;8.824;2023-09-07T14:04:58;6.03;;;2.88;;
66607;SDS011;53462;39.616;8.824;2023-09-07T14:07:24;4.28;;;2.40;;
66607;SDS011;53462;39.616;8.824;2023-09-07T14:09:53;3.80;;;2.50;;
66607;SDS011;53462;39.616;8.824;2023-09-07T14:12:20;2.97;;;2.63;;
66607;SDS011;53462;39.616;8.824;2023-09-07T14:14:47;3.33;;;2.53;;
66607;SDS011;53462;39.616;8.824;2023-09-07T14:17:13;3.67;;;2.80;;
66607;SDS011;53462;39.616;8.824;2023-09-07T14:19:39;4.22;;;2.63;;
66607;SDS011;53462;39.616;8.824;2023-09-07T14:22:05;3.45;;;2.60;;
66607;SDS011;53462;39.616;8.824;2023-09-07T14:24:31;3.45;;;2.40;;
66607;SDS011;53462;39.616;8.824;2023-09-07T14:26:57;5.32;;;2.67;;
66607;SDS011;53462;39.616;8.824;2023-09-07T14:29:22;5.70;;;2.92;;
66607;SDS011;53462;39.616;8.824;2023-09-07T14:31:48;3.53;;;2.58;;
66607;SDS011;53462;39.616;8.824;2023-09-07T14:34:14;5.43;;;2.58;;
66607;SDS011;53462;39.616;8.824;2023-09-07T14:36:40;3.40;;;2.65;;
66607;SDS011;53462;39.616;8.824;2023-09-07T14:39:07;3.72;;;2.60;;
66607;SDS011;53462;39.616;8.824;2023-09-07T14:41:36;3.63;;;2.70;;
66607;SDS011;53462;39.616;8.824;2023-09-07T14:44:02;5.28;;;2.53;;
66607;SDS011;53462;39.616;8.824;2023-09-07T14:46:29;3.38;;;2.22;;
66607;SDS011;53462;39.616;8.824;2023-09-07T14:48:55;4.88;;;2.40;;
66607;SDS011;53462;39.616;8.824;2023-09-07T14:51:22;5.55;;;2.60;;